sensor_id;sensor_type;location;lat;lon;timestamp;pressure;altitude;pressure_sealevel;temperature;humidity
16100;BME280;8154;50.830;12.082;2022-12-10T00:02:22;98349.19;;;22.47;33.67
16100;BME280;8154;50.830;12.082;2022-12-10T00:05:07;98355.72;;;22.51;33.75
16100;BME280;8154;50.830;12.082;2022-12-10T00:07:56;98351.63;;;22.48;33.57
16100;BME280;8154;50.830;12.082;2022-12-10T00:10:40;98358.78;;;22.48;33.69
16100;BME280;8154;50.830;12.082;2022-12-10T00:13:25;98360.41;;;22.55;33.64
16100;BME280;8154;50.830;12.082;2022-12-10T00:16:11;98361.72;;;22.71;33.46
16100;BME280;8154;50.830;12.082;2022-12-10T00:18:56;98365.84;;;22.67;33.46
16100;BME280;8154;50.830;12.082;2022-12-10T00:21:42;98366.94;;;22.59;33.43
16100;BME280;8154;50.830;12.082;2022-12-10T00:24:29;98365.16;;;22.53;33.56
16100;BME280;8154;50.830;12.082;2022-12-10T00:27:14;98369.22;;;22.56;33.63
16100;BME280;8154;50.830;12.082;2022-12-10T00:30:04;98371.69;;;22.51;33.57
16100;BME280;8154;50.830;12.082;2022-12-10T00:32:49;98372.91;;;22.55;33.71
16100;BME280;8154;50.830;12.082;2022-12-10T00:38:43;98373.09;;;22.60;33.38
16100;BME280;8154;50.830;12.082;2022-12-10T00:41:28;98367.19;;;22.51;33.67
16100;BME280;8154;50.830;12.082;2022-12-10T00:44:14;98375.78;;;22.47;33.67
16100;BME280;8154;50.830;12.082;2022-12-10T00:47:01;98374.53;;;22.49;33.68
16100;BME280;8154;50.830;12.082;2022-12-10T00:49:45;98375.38;;;22.50;33.86
16100;BME280;8154;50.830;12.082;2022-12-10T00:52:31;98369.63;;;22.53;33.67
16100;BME280;8154;50.830;12.082;2022-12-10T00:55:16;98379.47;;;22.52;33.67
16100;BME280;8154;50.830;12.082;2022-12-10T00:58:05;98374.34;;;22.51;33.60
16100;BME280;8154;50.830;12.082;2022-12-10T01:00:50;98376.81;;;22.52;33.50
16100;BME280;8154;50.830;12.082;2022-12-10T01:03:35;98383.16;;;22.51;33.60
16100;BME280;8154;50.830;12.082;2022-12-10T01:06:27;98382.34;;;22.51;33.59
16100;BME280;8154;50.830;12.082;2022-12-10T01:09:15;98384.00;;;22.52;33.40
16100;BME280;8154;50.830;12.082;2022-12-10T01:12:02;98379.47;;;22.52;33.58
16100;BME280;8154;50.830;12.082;2022-12-10T01:14:47;98379.06;;;22.49;33.76
16100;BME280;8154;50.830;12.082;2022-12-10T01:17:32;98376.19;;;22.50;33.70
16100;BME280;8154;50.830;12.082;2022-12-10T01:20:16;98374.97;;;22.53;33.63
16100;BME280;8154;50.830;12.082;2022-12-10T01:23:01;98371.66;;;22.57;33.52
16100;BME280;8154;50.830;12.082;2022-12-10T01:25:45;98379.03;;;22.55;33.59
16100;BME280;8154;50.830;12.082;2022-12-10T01:28:31;98386.63;;;22.58;33.39
16100;BME280;8154;50.830;12.082;2022-12-10T01:31:23;98379.47;;;22.52;33.64
16100;BME280;8154;50.830;12.082;2022-12-10T01:34:12;98384.53;;;22.60;33.60
16100;BME280;8154;50.830;12.082;2022-12-10T01:36:58;98388.00;;;22.67;33.41
16100;BME280;8154;50.830;12.082;2022-12-10T01:39:43;98394.19;;;22.61;33.26
16100;BME280;8154;50.830;12.082;2022-12-10T01:42:27;98392.78;;;22.52;33.54
16100;BME280;8154;50.830;12.082;2022-12-10T01:45:12;98401.16;;;22.49;33.58
16100;BME280;8154;50.830;12.082;2022-12-10T01:47:57;98403.25;;;22.47;33.75
16100;BME280;8154;50.830;12.082;2022-12-10T01:50:42;98393.41;;;22.48;33.85
16100;BME280;8154;50.830;12.082;2022-12-10T01:53:26;98395.63;;;22.57;33.76
16100;BME280;8154;50.830;12.082;2022-12-10T01:56:13;98389.78;;;22.73;33.36
16100;BME280;8154;50.830;12.082;2022-12-10T01:59:00;98393.91;;;22.69;33.32
16100;BME280;8154;50.830;12.082;2022-12-10T02:10:57;98398.56;;;22.43;33.67
16100;BME280;8154;50.830;12.082;2022-12-10T02:17:01;98390.38;;;22.44;33.70
16100;BME280;8154;50.830;12.082;2022-12-10T02:19:58;98385.03;;;22.44;33.73
16100;BME280;8154;50.830;12.082;2022-12-10T02:22:51;98391.16;;;22.51;33.75
16100;BME280;8154;50.830;12.082;2022-12-10T02:26:03;98401.38;;;22.48;33.70
16100;BME280;8154;50.830;12.082;2022-12-10T02:32:35;98399.16;;;22.45;33.86
16100;BME280;8154;50.830;12.082;2022-12-10T02:35:26;98404.03;;;22.48;33.74
16100;BME280;8154;50.830;12.082;2022-12-10T02:38:16;98397.50;;;22.50;33.65
16100;BME280;8154;50.830;12.082;2022-12-10T02:41:06;98394.53;;;22.65;33.35
16100;BME280;8154;50.830;12.082;2022-12-10T02:43:53;98393.75;;;22.64;33.22
16100;BME280;8154;50.830;12.082;2022-12-10T02:46:41;98397.09;;;22.47;33.58
16100;BME280;8154;50.830;12.082;2022-12-10T02:49:28;98405.50;;;22.44;33.76
16100;BME280;8154;50.830;12.082;2022-12-10T02:52:17;98395.91;;;22.43;33.63
16100;BME280;8154;50.830;12.082;2022-12-10T02:55:03;98402.03;;;22.43;33.86
16100;BME280;8154;50.830;12.082;2022-12-10T03:00:50;98400.59;;;22.47;33.74
16100;BME280;8154;50.830;12.082;2022-12-10T03:03:49;98412.03;;;22.54;33.58
16100;BME280;8154;50.830;12.082;2022-12-10T03:06:46;98412.53;;;22.69;33.40
16100;BME280;8154;50.830;12.082;2022-12-10T03:09:38;98415.50;;;22.61;33.33
16100;BME280;8154;50.830;12.082;2022-12-10T03:12:55;98421.28;;;22.45;33.61
16100;BME280;8154;50.830;12.082;2022-12-10T03:15:41;98413.72;;;22.42;33.64
16100;BME280;8154;50.830;12.082;2022-12-10T03:18:27;98412.53;;;22.38;33.81
16100;BME280;8154;50.830;12.082;2022-12-10T03:21:15;98411.88;;;22.43;33.55
16100;BME280;8154;50.830;12.082;2022-12-10T03:24:00;98410.41;;;22.53;33.63
16100;BME280;8154;50.830;12.082;2022-12-10T03:26:47;98405.97;;;22.72;33.22
16100;BME280;8154;50.830;12.082;2022-12-10T03:29:39;98406.44;;;22.62;33.36
16100;BME280;8154;50.830;12.082;2022-12-10T03:32:27;98402.81;;;22.50;33.58
16100;BME280;8154;50.830;12.082;2022-12-10T03:35:14;98404.88;;;22.48;33.60
16100;BME280;8154;50.830;12.082;2022-12-10T03:38:00;98408.56;;;22.47;33.77
16100;BME280;8154;50.830;12.082;2022-12-10T03:40:44;98407.97;;;22.45;33.68
16100;BME280;8154;50.830;12.082;2022-12-10T03:43:29;98416.38;;;22.42;33.68
16100;BME280;8154;50.830;12.082;2022-12-10T03:46:14;98402.63;;;22.45;33.62
16100;BME280;8154;50.830;12.082;2022-12-10T03:48:59;98413.31;;;22.39;33.75
16100;BME280;8154;50.830;12.082;2022-12-10T03:51:44;98413.72;;;22.42;33.75
16100;BME280;8154;50.830;12.082;2022-12-10T03:54:28;98414.47;;;22.56;33.62
16100;BME280;8154;50.830;12.082;2022-12-10T03:57:12;98402.72;;;22.70;33.25
16100;BME280;8154;50.830;12.082;2022-12-10T03:59:56;98405.41;;;22.63;33.34
16100;BME280;8154;50.830;12.082;2022-12-10T04:02:41;98412.25;;;22.53;33.54
16100;BME280;8154;50.830;12.082;2022-12-10T04:05:26;98409.38;;;22.48;33.68
16100;BME280;8154;50.830;12.082;2022-12-10T04:08:10;98409.16;;;22.49;33.66
16100;BME280;8154;50.830;12.082;2022-12-10T04:10:54;98406.91;;;22.46;33.64
16100;BME280;8154;50.830;12.082;2022-12-10T04:13:39;98408.75;;;22.52;33.49
16100;BME280;8154;50.830;12.082;2022-12-10T04:16:43;98404.41;;;22.64;33.29
16100;BME280;8154;50.830;12.082;2022-12-10T04:19:27;98405.47;;;22.57;33.39
16100;BME280;8154;50.830;12.082;2022-12-10T04:22:12;98409.16;;;22.49;33.41
16100;BME280;8154;50.830;12.082;2022-12-10T04:25:15;98424.34;;;22.49;33.54
16100;BME280;8154;50.830;12.082;2022-12-10T04:28:18;98419.00;;;22.49;33.50
16100;BME280;8154;50.830;12.082;2022-12-10T04:31:02;98410.19;;;22.48;33.65
16100;BME280;8154;50.830;12.082;2022-12-10T04:33:46;98409.38;;;22.54;33.50
16100;BME280;8154;50.830;12.082;2022-12-10T04:36:31;98405.59;;;22.68;33.26
16100;BME280;8154;50.830;12.082;2022-12-10T04:39:16;98411.97;;;22.67;33.28
16100;BME280;8154;50.830;12.082;2022-12-10T04:42:01;98411.41;;;22.52;33.45
16100;BME280;8154;50.830;12.082;2022-12-10T04:44:47;98401.16;;;22.49;33.59
16100;BME280;8154;50.830;12.082;2022-12-10T04:47:31;98400.41;;;22.42;33.58
16100;BME280;8154;50.830;12.082;2022-12-10T04:50:15;98399.16;;;22.45;33.45
16100;BME280;8154;50.830;12.082;2022-12-10T04:53:00;98402.63;;;22.45;33.72
16100;BME280;8154;50.830;12.082;2022-12-10T04:55:45;98401.81;;;22.51;33.68
16100;BME280;8154;50.830;12.082;2022-12-10T04:58:29;98397.50;;;22.50;33.57
16100;BME280;8154;50.830;12.082;2022-12-10T05:01:15;98393.91;;;22.69;33.20
16100;BME280;8154;50.830;12.082;2022-12-10T05:04:01;98400.25;;;22.68;33.33
16100;BME280;8154;50.830;12.082;2022-12-10T05:06:48;98396.88;;;22.55;33.58
16100;BME280;8154;50.830;12.082;2022-12-10T05:09:33;98398.94;;;22.46;33.56
16100;BME280;8154;50.830;12.082;2022-12-10T05:12:17;98402.22;;;22.48;33.49
16100;BME280;8154;50.830;12.082;2022-12-10T05:15:02;98399.16;;;22.45;33.66
16100;BME280;8154;50.830;12.082;2022-12-10T05:17:46;98397.13;;;22.40;33.57
16100;BME280;8154;50.830;12.082;2022-12-10T05:20:30;98394.25;;;22.42;33.73
16100;BME280;8154;50.830;12.082;2022-12-10T05:23:15;98396.69;;;22.43;33.66
16100;BME280;8154;50.830;12.082;2022-12-10T05:26:14;98398.47;;;22.62;33.34
16100;BME280;8154;50.830;12.082;2022-12-10T05:28:59;98405.59;;;22.68;33.32
16100;BME280;8154;50.830;12.082;2022-12-10T05:31:43;98398.28;;;22.57;33.28
16100;BME280;8154;50.830;12.082;2022-12-10T05:34:27;98400.78;;;22.52;33.34
16100;BME280;8154;50.830;12.082;2022-12-10T05:37:12;98412.47;;;22.51;33.61
16100;BME280;8154;50.830;12.082;2022-12-10T05:39:56;98413.63;;;22.62;33.35
16100;BME280;8154;50.830;12.082;2022-12-10T05:42:40;98411.75;;;22.69;33.20
16100;BME280;8154;50.830;12.082;2022-12-10T05:45:24;98416.31;;;22.55;33.50
16100;BME280;8154;50.830;12.082;2022-12-10T05:48:14;98415.53;;;22.48;33.51
16100;BME280;8154;50.830;12.082;2022-12-10T05:51:07;98422.91;;;22.46;33.56
16100;BME280;8154;50.830;12.082;2022-12-10T05:53:53;98423.13;;;22.45;33.52
16100;BME280;8154;50.830;12.082;2022-12-10T05:56:37;98431.72;;;22.47;33.58
16100;BME280;8154;50.830;12.082;2022-12-10T05:59:23;98424.34;;;22.49;33.60
16100;BME280;8154;50.830;12.082;2022-12-10T06:02:07;98439.47;;;22.48;33.55
16100;BME280;8154;50.830;12.082;2022-12-10T06:04:52;98438.66;;;22.48;33.57
16100;BME280;8154;50.830;12.082;2022-12-10T06:07:36;98435.78;;;22.49;33.59
16100;BME280;8154;50.830;12.082;2022-12-10T06:10:20;98436.81;;;22.48;33.51
16100;BME280;8154;50.830;12.082;2022-12-10T06:13:04;98445.03;;;22.47;33.54
16100;BME280;8154;50.830;12.082;2022-12-10T06:15:49;98443.78;;;22.49;33.57
16100;BME280;8154;50.830;12.082;2022-12-10T06:18:34;98451.97;;;22.48;33.41
16100;BME280;8154;50.830;12.082;2022-12-10T06:21:20;98448.09;;;22.50;33.55
16100;BME280;8154;50.830;12.082;2022-12-10T06:24:04;98452.59;;;22.56;33.39
16100;BME280;8154;50.830;12.082;2022-12-10T06:26:49;98461.53;;;22.68;33.29
16100;BME280;8154;50.830;12.082;2022-12-10T06:29:33;98461.34;;;22.63;33.32
16100;BME280;8154;50.830;12.082;2022-12-10T06:32:18;98462.41;;;22.56;33.38
16100;BME280;8154;50.830;12.082;2022-12-10T06:35:03;98461.41;;;22.50;33.44
16100;BME280;8154;50.830;12.082;2022-12-10T06:37:48;98468.78;;;22.48;33.50
16100;BME280;8154;50.830;12.082;2022-12-10T06:40:33;98468.31;;;22.64;33.32
16100;BME280;8154;50.830;12.082;2022-12-10T06:43:18;98480.34;;;22.73;33.19
16100;BME280;8154;50.830;12.082;2022-12-10T06:46:10;98475.31;;;22.52;33.39
16100;BME280;8154;50.830;12.082;2022-12-10T06:48:54;98479.22;;;22.43;33.67
16100;BME280;8154;50.830;12.082;2022-12-10T06:51:39;98483.34;;;22.39;33.71
16100;BME280;8154;50.830;12.082;2022-12-10T06:54:24;98475.38;;;22.39;33.50
16100;BME280;8154;50.830;12.082;2022-12-10T06:57:08;98487.00;;;22.45;33.50
16100;BME280;8154;50.830;12.082;2022-12-10T06:59:53;98494.19;;;22.44;33.57
16100;BME280;8154;50.830;12.082;2022-12-10T07:02:37;98493.56;;;22.49;33.57
16100;BME280;8154;50.830;12.082;2022-12-10T07:05:21;98492.72;;;22.48;33.52
16100;BME280;8154;50.830;12.082;2022-12-10T07:08:05;98499.09;;;22.47;33.51
16100;BME280;8154;50.830;12.082;2022-12-10T07:10:50;98500.31;;;22.51;33.52
16100;BME280;8154;50.830;12.082;2022-12-10T07:13:35;98497.03;;;22.49;33.40
16100;BME280;8154;50.830;12.082;2022-12-10T07:16:27;98500.09;;;22.46;33.72
16100;BME280;8154;50.830;12.082;2022-12-10T07:19:12;98499.94;;;22.41;33.52
16100;BME280;8154;50.830;12.082;2022-12-10T07:21:56;98500.94;;;22.47;33.71
16100;BME280;8154;50.830;12.082;2022-12-10T07:24:41;98493.59;;;22.42;33.62
16100;BME280;8154;50.830;12.082;2022-12-10T07:27:25;98501.56;;;22.42;33.65
16100;BME280;8154;50.830;12.082;2022-12-10T07:30:09;98498.06;;;22.48;33.69
16100;BME280;8154;50.830;12.082;2022-12-10T07:32:54;98498.88;;;22.49;33.68
16100;BME280;8154;50.830;12.082;2022-12-10T07:35:39;98499.44;;;22.64;33.35
16100;BME280;8154;50.830;12.082;2022-12-10T07:38:24;98508.41;;;22.76;33.26
16100;BME280;8154;50.830;12.082;2022-12-10T07:41:11;98505.63;;;22.58;33.47
16100;BME280;8154;50.830;12.082;2022-12-10T07:43:56;98506.28;;;22.53;33.42
16100;BME280;8154;50.830;12.082;2022-12-10T07:46:40;98506.88;;;22.49;33.34
16100;BME280;8154;50.830;12.082;2022-12-10T07:49:25;98509.75;;;22.47;33.53
16100;BME280;8154;50.830;12.082;2022-12-10T07:52:09;98516.09;;;22.46;33.53
16100;BME280;8154;50.830;12.082;2022-12-10T07:54:53;98515.06;;;22.54;33.56
16100;BME280;8154;50.830;12.082;2022-12-10T07:57:38;98528.97;;;22.62;33.33
16100;BME280;8154;50.830;12.082;2022-12-10T08:00:22;98533.66;;;22.60;33.30
16100;BME280;8154;50.830;12.082;2022-12-10T08:03:06;98535.13;;;22.56;33.39
16100;BME280;8154;50.830;12.082;2022-12-10T08:06:02;98527.97;;;22.50;33.59
16100;BME280;8154;50.830;12.082;2022-12-10T08:08:47;98533.09;;;22.52;33.43
16100;BME280;8154;50.830;12.082;2022-12-10T08:11:33;98532.66;;;22.48;33.45
16100;BME280;8154;50.830;12.082;2022-12-10T08:14:17;98531.84;;;22.54;33.46
16100;BME280;8154;50.830;12.082;2022-12-10T08:17:02;98527.78;;;22.45;33.66
16100;BME280;8154;50.830;12.082;2022-12-10T08:19:46;98528.81;;;22.44;33.64
16100;BME280;8154;50.830;12.082;2022-12-10T08:22:30;98534.13;;;22.44;33.53
16100;BME280;8154;50.830;12.082;2022-12-10T08:25:15;98531.06;;;22.41;33.75
16100;BME280;8154;50.830;12.082;2022-12-10T08:27:59;98536.41;;;22.41;33.62
16100;BME280;8154;50.830;12.082;2022-12-10T08:30:48;98536.59;;;22.46;33.73
16100;BME280;8154;50.830;12.082;2022-12-10T08:33:36;98536.97;;;22.49;33.53
16100;BME280;8154;50.830;12.082;2022-12-10T08:36:23;98539.59;;;22.69;33.31
16100;BME280;8154;50.830;12.082;2022-12-10T08:39:07;98540.56;;;22.74;33.24
16100;BME280;8154;50.830;12.082;2022-12-10T08:41:54;98536.34;;;22.60;33.27
16100;BME280;8154;50.830;12.082;2022-12-10T08:44:39;98531.84;;;22.54;33.50
16100;BME280;8154;50.830;12.082;2022-12-10T08:47:23;98541.28;;;22.50;33.54
16100;BME280;8154;50.830;12.082;2022-12-10T08:50:08;98539.00;;;22.60;33.43
16100;BME280;8154;50.830;12.082;2022-12-10T08:52:53;98544.09;;;22.68;33.17
16100;BME280;8154;50.830;12.082;2022-12-10T08:55:39;98544.53;;;22.59;33.32
16100;BME280;8154;50.830;12.082;2022-12-10T08:58:24;98547.44;;;22.51;33.54
16100;BME280;8154;50.830;12.082;2022-12-10T09:01:12;98551.13;;;22.43;33.71
16100;BME280;8154;50.830;12.082;2022-12-10T09:03:57;98550.09;;;22.44;33.65
16100;BME280;8154;50.830;12.082;2022-12-10T09:06:42;98551.94;;;22.44;33.73
16100;BME280;8154;50.830;12.082;2022-12-10T09:09:26;98561.34;;;22.46;33.61
16100;BME280;8154;50.830;12.082;2022-12-10T09:12:11;98563.78;;;22.48;33.60
16100;BME280;8154;50.830;12.082;2022-12-10T09:14:55;98577.09;;;22.48;33.52
16100;BME280;8154;50.830;12.082;2022-12-10T09:17:40;98572.00;;;22.46;33.53
16100;BME280;8154;50.830;12.082;2022-12-10T09:20:25;98581.03;;;22.45;33.64
16100;BME280;8154;50.830;12.082;2022-12-10T09:23:10;98578.56;;;22.44;33.53
16100;BME280;8154;50.830;12.082;2022-12-10T09:25:54;98577.31;;;22.46;33.64
16100;BME280;8154;50.830;12.082;2022-12-10T09:28:41;98580.19;;;22.45;33.57
16100;BME280;8154;50.830;12.082;2022-12-10T09:31:26;98569.13;;;22.48;33.52
16100;BME280;8154;50.830;12.082;2022-12-10T09:34:10;98574.66;;;22.53;33.50
16100;BME280;8154;50.830;12.082;2022-12-10T09:36:56;98568.31;;;22.54;33.42
16100;BME280;8154;50.830;12.082;2022-12-10T09:39:40;98565.44;;;22.55;33.42
16100;BME280;8154;50.830;12.082;2022-12-10T09:46:06;98560.53;;;22.52;33.39
16100;BME280;8154;50.830;12.082;2022-12-10T09:51:50;98559.31;;;22.55;33.40
16100;BME280;8154;50.830;12.082;2022-12-10T09:54:47;98556.84;;;22.60;33.38
16100;BME280;8154;50.830;12.082;2022-12-10T09:57:38;98560.06;;;22.68;33.13
16100;BME280;8154;50.830;12.082;2022-12-10T10:00:35;98559.66;;;22.65;33.14
16100;BME280;8154;50.830;12.082;2022-12-10T10:03:21;98564.22;;;22.58;33.44
16100;BME280;8154;50.830;12.082;2022-12-10T10:06:06;98564.63;;;22.55;33.53
16100;BME280;8154;50.830;12.082;2022-12-10T10:08:55;98561.16;;;22.54;33.45
16100;BME280;8154;50.830;12.082;2022-12-10T10:11:42;98568.72;;;22.57;33.46
16100;BME280;8154;50.830;12.082;2022-12-10T10:14:29;98561.97;;;22.55;33.46
16100;BME280;8154;50.830;12.082;2022-12-10T10:17:21;98558.25;;;22.49;33.65
16100;BME280;8154;50.830;12.082;2022-12-10T10:20:07;98558.91;;;22.51;33.55
16100;BME280;8154;50.830;12.082;2022-12-10T10:22:53;98559.91;;;22.50;33.46
16100;BME280;8154;50.830;12.082;2022-12-10T10:25:41;98563.59;;;22.49;33.53
16100;BME280;8154;50.830;12.082;2022-12-10T10:28:26;98563.00;;;22.47;33.59
16100;BME280;8154;50.830;12.082;2022-12-10T10:31:32;98560.06;;;22.68;33.37
16100;BME280;8154;50.830;12.082;2022-12-10T10:34:19;98561.88;;;22.74;33.20
16100;BME280;8154;50.830;12.082;2022-12-10T10:37:06;98559.88;;;22.63;33.47
16100;BME280;8154;50.830;12.082;2022-12-10T10:39:51;98565.25;;;22.57;33.48
16100;BME280;8154;50.830;12.082;2022-12-10T10:42:43;98556.44;;;22.56;33.69
16100;BME280;8154;50.830;12.082;2022-12-10T10:46:02;98558.47;;;22.54;33.47
16100;BME280;8154;50.830;12.082;2022-12-10T10:48:50;98552.53;;;22.52;33.64
16100;BME280;8154;50.830;12.082;2022-12-10T10:51:42;98555.78;;;22.67;33.32
16100;BME280;8154;50.830;12.082;2022-12-10T10:57:25;98552.13;;;22.55;33.47
16100;BME280;8154;50.830;12.082;2022-12-10T11:00:20;98552.34;;;22.47;33.63
16100;BME280;8154;50.830;12.082;2022-12-10T11:03:08;98551.53;;;22.53;33.50
16100;BME280;8154;50.830;12.082;2022-12-10T11:05:56;98550.03;;;22.70;33.32
16100;BME280;8154;50.830;12.082;2022-12-10T11:08:42;98550.16;;;22.82;33.02
16100;BME280;8154;50.830;12.082;2022-12-10T11:11:35;98554.31;;;22.71;33.34
16100;BME280;8154;50.830;12.082;2022-12-10T11:20:18;98558.06;;;22.51;33.52
16100;BME280;8154;50.830;12.082;2022-12-10T11:23:10;98564.03;;;22.53;33.63
16100;BME280;8154;50.830;12.082;2022-12-10T11:44:54;98574.22;;;22.62;33.45
16100;BME280;8154;50.830;12.082;2022-12-10T11:50:57;98567.50;;;22.53;33.56
16100;BME280;8154;50.830;12.082;2022-12-10T11:53:56;98561.34;;;22.53;33.49
16100;BME280;8154;50.830;12.082;2022-12-10T11:56:48;98567.22;;;22.68;33.37
16100;BME280;8154;50.830;12.082;2022-12-10T12:02:31;98561.34;;;22.59;33.42
16100;BME280;8154;50.830;12.082;2022-12-10T12:17:37;98570.16;;;22.60;33.46
16100;BME280;8154;50.830;12.082;2022-12-10T12:20:30;98575.06;;;22.56;33.57
16100;BME280;8154;50.830;12.082;2022-12-10T12:23:31;98576.09;;;22.49;33.73
16100;BME280;8154;50.830;12.082;2022-12-10T12:26:44;98582.03;;;22.51;33.68
16100;BME280;8154;50.830;12.082;2022-12-10T12:29:39;98577.72;;;22.50;33.78
16100;BME280;8154;50.830;12.082;2022-12-10T12:35:46;98586.16;;;22.53;33.63
16100;BME280;8154;50.830;12.082;2022-12-10T12:38:43;98584.69;;;22.57;33.65
16100;BME280;8154;50.830;12.082;2022-12-10T12:41:59;98589.59;;;22.60;33.62
16100;BME280;8154;50.830;12.082;2022-12-10T12:44:59;98587.13;;;22.65;33.60
16100;BME280;8154;50.830;12.082;2022-12-10T12:47:57;98581.34;;;22.82;33.08
16100;BME280;8154;50.830;12.082;2022-12-10T12:50:49;98585.25;;;22.72;33.33
16100;BME280;8154;50.830;12.082;2022-12-10T12:53:35;98588.59;;;22.61;33.41
16100;BME280;8154;50.830;12.082;2022-12-10T13:05:36;98590.22;;;22.62;33.31
16100;BME280;8154;50.830;12.082;2022-12-10T13:08:25;98587.78;;;22.54;33.80
16100;BME280;8154;50.830;12.082;2022-12-10T13:11:18;98590.44;;;22.54;33.62
16100;BME280;8154;50.830;12.082;2022-12-10T13:26:23;98603.97;;;22.53;33.67
16100;BME280;8154;50.830;12.082;2022-12-10T13:29:23;98608.06;;;22.49;33.76
16100;BME280;8154;50.830;12.082;2022-12-10T13:38:23;98607.66;;;22.52;33.74
16100;BME280;8154;50.830;12.082;2022-12-10T13:42:20;98606.00;;;22.57;33.64
16100;BME280;8154;50.830;12.082;2022-12-10T13:45:34;98604.72;;;22.66;33.39
16100;BME280;8154;50.830;12.082;2022-12-10T13:48:26;98611.28;;;22.77;33.38
16100;BME280;8154;50.830;12.082;2022-12-10T13:54:33;98610.31;;;22.58;33.70
16100;BME280;8154;50.830;12.082;2022-12-10T14:06:35;98613.78;;;22.46;33.82
16100;BME280;8154;50.830;12.082;2022-12-10T14:09:27;98621.38;;;22.49;33.75
16100;BME280;8154;50.830;12.082;2022-12-10T14:12:21;98631.97;;;22.68;33.37
16100;BME280;8154;50.830;12.082;2022-12-10T14:15:17;98638.50;;;22.72;33.34
16100;BME280;8154;50.830;12.082;2022-12-10T14:18:09;98638.38;;;22.61;33.73
16100;BME280;8154;50.830;12.082;2022-12-10T14:20:55;98640.00;;;22.55;33.63
16100;BME280;8154;50.830;12.082;2022-12-10T14:23:45;98634.66;;;22.55;33.73
16100;BME280;8154;50.830;12.082;2022-12-10T14:26:36;98647.19;;;22.55;33.64
16100;BME280;8154;50.830;12.082;2022-12-10T14:29:20;98645.53;;;22.54;33.66
16100;BME280;8154;50.830;12.082;2022-12-10T14:32:05;98648.41;;;22.52;33.71
16100;BME280;8154;50.830;12.082;2022-12-10T14:34:53;98651.69;;;22.54;33.79
16100;BME280;8154;50.830;12.082;2022-12-10T14:37:41;98654.13;;;22.69;33.43
16100;BME280;8154;50.830;12.082;2022-12-10T14:40:39;98647.75;;;22.63;33.46
16100;BME280;8154;50.830;12.082;2022-12-10T14:43:36;98652.09;;;22.51;33.65
16100;BME280;8154;50.830;12.082;2022-12-10T14:46:27;98654.75;;;22.51;33.74
16100;BME280;8154;50.830;12.082;2022-12-10T14:49:16;98652.28;;;22.50;33.86
16100;BME280;8154;50.830;12.082;2022-12-10T14:52:12;98661.28;;;22.68;33.47
16100;BME280;8154;50.830;12.082;2022-12-10T14:55:00;98660.88;;;22.71;33.44
16100;BME280;8154;50.830;12.082;2022-12-10T14:58:02;98657.63;;;22.56;33.56
16100;BME280;8154;50.830;12.082;2022-12-10T15:00:49;98660.91;;;22.52;33.76
16100;BME280;8154;50.830;12.082;2022-12-10T15:03:41;98664.97;;;22.48;33.92
16100;BME280;8154;50.830;12.082;2022-12-10T15:06:37;98664.59;;;22.44;33.86
16100;BME280;8154;50.830;12.082;2022-12-10T15:09:26;98666.00;;;22.47;33.73
16100;BME280;8154;50.830;12.082;2022-12-10T15:12:23;98666.63;;;22.42;33.87
16100;BME280;8154;50.830;12.082;2022-12-10T15:15:24;98661.09;;;22.44;33.71
16100;BME280;8154;50.830;12.082;2022-12-10T15:18:14;98661.31;;;22.49;33.89
16100;BME280;8154;50.830;12.082;2022-12-10T15:21:26;98666.41;;;22.63;33.67
16100;BME280;8154;50.830;12.082;2022-12-10T15:24:36;98671.28;;;22.80;33.26
16100;BME280;8154;50.830;12.082;2022-12-10T15:27:24;98678.53;;;22.59;33.59
16100;BME280;8154;50.830;12.082;2022-12-10T15:30:32;98684.25;;;22.50;33.77
16100;BME280;8154;50.830;12.082;2022-12-10T15:33:39;98689.97;;;22.47;33.90
16100;BME280;8154;50.830;12.082;2022-12-10T15:36:30;98685.91;;;22.44;33.71
16100;BME280;8154;50.830;12.082;2022-12-10T15:39:35;98688.75;;;22.43;33.82
16100;BME280;8154;50.830;12.082;2022-12-10T15:42:35;98692.44;;;22.61;33.63
16100;BME280;8154;50.830;12.082;2022-12-10T15:45:23;98696.53;;;22.64;33.50
16100;BME280;8154;50.830;12.082;2022-12-10T15:48:11;98687.34;;;22.53;33.80
16100;BME280;8154;50.830;12.082;2022-12-10T15:50:56;98698.19;;;22.52;33.84
16100;BME280;8154;50.830;12.082;2022-12-10T15:53:42;98704.53;;;22.51;33.95
16100;BME280;8154;50.830;12.082;2022-12-10T15:56:27;98704.72;;;22.49;33.83
16100;BME280;8154;50.830;12.082;2022-12-10T15:59:12;98718.03;;;22.49;33.77
16100;BME280;8154;50.830;12.082;2022-12-10T16:01:56;98724.00;;;22.58;33.70
16100;BME280;8154;50.830;12.082;2022-12-10T16:04:42;98726.47;;;22.53;33.72
16100;BME280;8154;50.830;12.082;2022-12-10T16:07:26;98734.00;;;22.49;33.67
16100;BME280;8154;50.830;12.082;2022-12-10T16:10:14;98727.66;;;22.50;33.57
16100;BME280;8154;50.830;12.082;2022-12-10T16:13:01;98734.81;;;22.50;33.81
16100;BME280;8154;50.830;12.082;2022-12-10T16:15:50;98729.94;;;22.53;33.75
16100;BME280;8154;50.830;12.082;2022-12-10T16:18:36;98728.09;;;22.54;33.63
16100;BME280;8154;50.830;12.082;2022-12-10T16:21:22;98730.94;;;22.59;33.58
16100;BME280;8154;50.830;12.082;2022-12-10T16:24:06;98735.28;;;22.60;33.64
16100;BME280;8154;50.830;12.082;2022-12-10T16:26:51;98734.19;;;22.74;33.51
16100;BME280;8154;50.830;12.082;2022-12-10T16:29:36;98736.66;;;22.82;33.21
16100;BME280;8154;50.830;12.082;2022-12-10T16:32:20;98730.31;;;22.63;33.52
16100;BME280;8154;50.830;12.082;2022-12-10T16:35:05;98728.28;;;22.59;33.53
16100;BME280;8154;50.830;12.082;2022-12-10T16:37:49;98728.91;;;22.54;33.66
16100;BME280;8154;50.830;12.082;2022-12-10T16:40:40;98727.66;;;22.50;33.64
16100;BME280;8154;50.830;12.082;2022-12-10T16:43:26;98731.53;;;22.48;33.90
16100;BME280;8154;50.830;12.082;2022-12-10T16:46:31;98732.16;;;22.50;33.78
16100;BME280;8154;50.830;12.082;2022-12-10T16:49:15;98732.59;;;22.53;33.67
16100;BME280;8154;50.830;12.082;2022-12-10T16:52:00;98731.56;;;22.54;33.77